Flight Track Log - Related Links

Times and Time Zones

All times are in EDT time to prevent confusion due to time zone crossing. See the SKW6534 flight status page for this flight to view local times or setup timezone preferences in your user account.

Time Position Orientation Groundspeed Altitude Reporting Facility
EDT Latitude Longitude Course Direction KTS MPH feet Rate Location/Type
Thu 03:17:00 PM 43.3957 -111.8467 126° Southeast  Level FlightAware Approximate
Thu 03:17:29 PM 43.4539 -112.0497 137° Southeast 225 259 7,700  Level Salt Lake Center
Thu 03:18:00 PM 43.3271 -111.7194 127° Southeast  Level FlightAware Approximate
Thu 03:18:31 PM 43.4075 -111.9614 126° Southeast 247 284 10,400  Level Salt Lake Center
Thu 03:19:00 PM 43.2581 -111.5926 127° Southeast  Level FlightAware Approximate
Thu 03:19:33 PM 43.3619 -111.8739 126° Southeast 269 310 12,200  Level Salt Lake Center
Thu 03:20:00 PM 43.1891 -111.4660 127° Southeast  Level FlightAware Approximate
Thu 03:20:35 PM 43.3100 -111.7733 125° Southeast 309 356 14,100  Level Salt Lake Center
Thu 03:21:00 PM 43.1201 -111.3396 127° Southeast  Level FlightAware Approximate
Thu 03:21:37 PM 43.2442 -111.6500 126° Southeast 343 395 16,400  Level Salt Lake Center
Thu 03:22:00 PM 43.0588 -111.2059 122° Southeast  Level FlightAware Approximate
Thu 03:22:38 PM 43.1869 -111.5414 126° Southeast 358 412 17,900  Level Salt Lake Center
Thu 03:23:40 PM 43.1181 -111.4114 126° Southeast 370 426 20,000 1,790 Climbing Salt Lake Center
Thu 03:24:42 PM 43.0581 -111.2983 126° Southeast 379 436 21,600 1,597 Climbing Salt Lake Center
Thu 03:25:44 PM 42.9869 -111.1611 125° Southeast 390 449 23,300 1,403 Climbing Salt Lake Center
Thu 03:26:46 PM 42.9258 -111.0472 126° Southeast 390 449 24,500 1,161 Climbing Salt Lake Center
Thu 03:27:48 PM 42.8519 -110.9083 126° Southeast 400 460 25,700 1,113 Climbing Salt Lake Center
Thu 03:28:50 PM 42.7869 -110.7897 127° Southeast 405 466 26,800 629 Climbing Salt Lake Center
Thu 03:29:52 PM 42.7094 -110.6450 126° Southeast 418 481 27,000 97 Climbing Salt Lake Center
Thu 03:30:54 PM 42.6392 -110.5206 127° Southeast 429 494 27,000  Level Salt Lake Center
Thu 03:31:55 PM 42.5614 -110.3756 126° Southeast 428 493 27,000  Level Salt Lake Center
Thu 03:32:57 PM 42.4942 -110.2528 127° Southeast 425 489 27,000  Level Salt Lake Center
Thu 03:33:59 PM 42.4272 -110.1300 126° Southeast 424 488 27,000  Level Salt Lake Center
Thu 03:35:01 PM 42.3489 -109.9872 127° Southeast 423 487 27,000  Level Salt Lake Center
Thu 03:36:03 PM 42.2808 -109.8658 127° Southeast 424 488 27,000  Level Salt Lake Center
Thu 03:37:04 PM 42.2022 -109.7236 127° Southeast 424 488 27,000  Level Salt Lake Center
Thu 03:38:06 PM 42.1344 -109.6025 127° Southeast 421 484 27,000  Level Salt Lake Center
Thu 03:39:08 PM 42.0561 -109.4611 127° Southeast 422 486 27,000  Level Salt Lake Center
Thu 03:40:10 PM 41.9886 -109.3400 127° Southeast 422 486 27,000  Level Salt Lake Center
Thu 03:41:11 PM 41.9203 -109.2206 128° Southeast 421 484 27,000  Level Salt Lake Center
Thu 03:42:13 PM 41.8403 -109.0806 127° Southeast 421 484 27,000  Level Salt Lake Center
Thu 03:43:15 PM 41.7725 -108.9608 127° Southeast 419 482 27,000  Level Salt Lake Center
Thu 03:44:17 PM 41.6942 -108.8211 127° Southeast 418 481 27,000  Level Salt Lake Center
Thu 03:45:18 PM 41.6256 -108.7025 128° Southeast 418 481 27,000  Level Salt Lake Center
Thu 03:46:20 PM 41.5561 -108.5844 128° Southeast 420 483 27,000  Level Salt Lake Center
Thu 03:47:22 PM 41.4769 -108.4467 127° Southeast 417 480 27,000  Level Salt Lake Center
Thu 03:48:24 PM 41.4089 -108.3300 128° Southeast 417 480 27,000  Level Salt Lake Center
Thu 03:48:55 PM 41.3739 -108.2697 128° Southeast 418 481 27,000  Level Denver Center
Thu 03:49:56 PM 41.3069 -108.1192 121° Southeast 428 493 27,000  Level Denver Center
Thu 03:50:27 PM 41.2814 -108.0547 118° Southeast 428 493 27,000  Level Salt Lake Center
Thu 03:51:29 PM 41.2214 -107.8994 117° Southeast 425 489 27,000  Level Salt Lake Center
Thu 03:52:00 PM 41.1942 -107.8339 119° Southeast 423 487 27,000  Level Denver Center
Thu 03:53:03 PM 41.1417 -107.7022 118° Southeast 422 486 27,000  Level Denver Center
Thu 03:54:05 PM 41.0800 -107.5481 118° Southeast 423 487 27,000  Level Denver Center
Thu 03:55:07 PM 41.0286 -107.4158 117° Southeast 422 486 27,000  Level Denver Center
Thu 03:56:09 PM 40.9661 -107.2614 118° Southeast 425 489 27,000  Level Denver Center
Thu 03:57:11 PM 40.9133 -107.1308 118° Southeast 421 484 27,000  Level Denver Center
Thu 03:58:13 PM 40.8517 -106.9769 118° Southeast 424 488 27,000  Level Denver Center
Thu 03:59:15 PM 40.7975 -106.8458 119° Southeast 426 490 27,000  Level Denver Center
Thu 04:00:17 PM 40.7361 -106.6964 118° Southeast 425 489 27,000  Level Denver Center
Thu 04:01:19 PM 40.6803 -106.5592 118° Southeast 424 488 27,000  Level Denver Center
Thu 04:02:21 PM 40.6247 -106.4225 118° Southeast 426 490 27,000  Level Denver Center
Thu 04:03:23 PM 40.5614 -106.2706 119° Southeast 424 488 27,000  Level Denver Center
Thu 04:04:25 PM 40.5167 -106.1369 114° Southeast 445 512 27,000  Level Denver Center
Thu 04:05:27 PM 40.4803 -105.9789 107° East 452 520 27,000 -532 Level Denver Center
Thu 04:06:29 PM 40.4447 -105.8206 106° East 451 519 25,900 -1,500 Descending Denver Center
Thu 04:07:31 PM 40.4039 -105.6458 107° East 415 478 23,900 -1,790 Descending Denver Center
Thu 04:08:33 PM 40.3719 -105.5089 107° East 398 458 22,200 -1,742 Descending Denver Center
Thu 04:09:35 PM 40.3242 -105.3869 117° Southeast 379 436 20,300 -1,887 Descending Denver Center
Thu 04:10:37 PM 40.2492 -105.2700 130° Southeast 390 449 18,300 -1,790 Descending Denver Center
Thu 04:11:39 PM 40.1836 -105.1647 129° Southeast 373 429 16,600 -1,694 Descending Denver Center
Thu 04:12:41 PM 40.1150 -105.0594 130° Southeast 356 410 14,800 -1,306 Descending Denver Center
Thu 04:13:43 PM 40.0567 -104.9689 130° Southeast 332 382 13,900 -823 Descending Denver Center
Thu 04:14:45 PM 39.9953 -104.8744 130° Southeast 320 368 13,100 -774 Descending Denver Center
Thu 04:15:47 PM 39.9353 -104.8067 139° Southeast 291 335 12,300 -960 Descending Denver Center
Thu 04:16:50 PM 39.8617 -104.8081 181° South 251 289 11,100 -576 Descending Denver Center
Thu 04:17:52 PM 39.7947 -104.8097 181° South 245 282 11,100 -435 Level Denver Center
Thu 04:18:54 PM 39.7228 -104.8117 181° South 240 276 10,200 -968 Descending Denver Center
Thu 04:19:56 PM 39.6683 -104.7819 157° South 240 276 9,100 -1,016 Descending Denver Center
Thu 04:20:58 PM 39.6689 -104.6981 89° East 218 251 8,100 -677 Descending Denver Center
Thu 04:22:00 PM 39.7150 -104.6619 31° Northeast 204 235 7,700 -387 Descending Denver Center

Login

Don't have an account? Register now (free) for customized features, flight alerts, and more!